createdAt,value
2022-11-18T00:00:36.534Z,32.60
2022-11-18T00:03:08.185Z,31.10
2022-11-18T00:05:37.891Z,30.40
2022-11-18T00:08:37.422Z,30.10
2022-11-18T00:11:37.990Z,27.90
2022-11-18T00:14:42.018Z,30.90
2022-11-18T00:17:50.189Z,27.00
2022-11-18T00:20:42.576Z,26.40
2022-11-18T00:23:28.904Z,26.20
2022-11-18T00:26:38.752Z,27.90
2022-11-18T00:29:24.041Z,26.70
2022-11-18T00:32:50.818Z,26.70
2022-11-18T00:35:46.527Z,28.70
2022-11-18T00:38:43.788Z,29.80
2022-11-18T00:46:16.747Z,26.00
2022-11-18T00:48:56.299Z,28.60
2022-11-18T00:51:36.979Z,29.50
2022-11-18T00:54:26.667Z,37.00
2022-11-18T00:57:07.674Z,40.40
2022-11-18T00:59:41.018Z,41.80
2022-11-18T01:02:15.956Z,42.70
2022-11-18T01:04:54.040Z,34.20
2022-11-18T01:07:38.323Z,32.10
2022-11-18T01:10:15.768Z,31.70
2022-11-18T01:13:18.172Z,28.40
2022-11-18T01:15:56.397Z,26.50
2022-11-18T01:18:41.378Z,26.50
2022-11-18T01:21:25.932Z,28.00
2022-11-18T01:24:01.332Z,37.70
2022-11-18T01:26:31.453Z,41.70
2022-11-18T01:29:11.934Z,33.00
2022-11-18T01:32:08.809Z,40.90
2022-11-18T01:34:33.817Z,47.10
2022-11-18T01:37:08.192Z,51.30
2022-11-18T01:39:43.757Z,44.20
2022-11-18T01:42:27.364Z,40.80
2022-11-18T01:45:52.906Z,37.20
2022-11-18T01:48:43.714Z,44.30
2022-11-18T01:51:40.029Z,46.00
2022-11-18T01:54:43.065Z,43.80
2022-11-18T02:00:42.747Z,41.90
2022-11-18T02:03:44.010Z,40.70
2022-11-18T02:06:31.480Z,39.30
2022-11-18T02:09:24.067Z,39.20
2022-11-18T02:15:48.671Z,39.40
2022-11-18T02:18:51.495Z,37.20
2022-11-18T02:22:10.344Z,38.90
2022-11-18T02:25:30.004Z,35.90
2022-11-18T02:29:08.037Z,32.30
2022-11-18T02:32:18.194Z,34.80
2022-11-18T02:35:51.224Z,36.70
2022-11-18T02:38:47.125Z,35.30
2022-11-18T02:41:58.611Z,32.00
2022-11-18T02:45:03.854Z,31.40
2022-11-18T02:48:01.105Z,30.40
2022-11-18T02:50:46.173Z,30.50
2022-11-18T02:53:35.824Z,31.60
2022-11-18T02:56:26.614Z,30.50
2022-11-18T02:59:14.255Z,30.20
2022-11-18T03:02:08.422Z,29.00
2022-11-18T03:04:58.227Z,28.90
2022-11-18T03:08:14.347Z,29.30
2022-11-18T03:11:12.893Z,29.60
2022-11-18T03:14:30.562Z,28.70
2022-11-18T03:17:43.449Z,27.00
2022-11-18T03:20:55.972Z,28.30
2022-11-18T03:24:20.406Z,30.10
2022-11-18T03:27:13.622Z,31.30
2022-11-18T03:30:10.979Z,30.40
2022-11-18T03:33:05.553Z,31.00
2022-11-18T03:35:44.465Z,31.90
2022-11-18T03:38:32.046Z,32.40
2022-11-18T03:41:09.600Z,32.40
2022-11-18T03:43:45.767Z,33.20
2022-11-18T03:46:40.576Z,31.10
2022-11-18T03:49:25.036Z,29.00
2022-11-18T03:52:25.481Z,27.90
2022-11-18T03:55:17.785Z,28.40
2022-11-18T03:57:51.903Z,25.80
2022-11-18T04:04:04.862Z,26.20
2022-11-18T04:07:02.695Z,25.90
2022-11-18T04:09:55.625Z,26.10
2022-11-18T04:12:53.790Z,23.70
2022-11-18T04:15:27.911Z,23.50
2022-11-18T04:18:01.517Z,25.40
2022-11-18T04:23:44.815Z,22.90
2022-11-18T04:26:33.393Z,22.80
2022-11-18T04:29:36.367Z,22.00
2022-11-18T04:32:16.881Z,24.60
2022-11-18T04:34:49.944Z,24.20
2022-11-18T04:38:01.628Z,24.20
2022-11-18T04:43:05.311Z,23.60
2022-11-18T04:45:44.800Z,21.90
2022-11-18T04:48:24.687Z,19.80
2022-11-18T04:54:01.020Z,21.10
2022-11-18T04:56:49.018Z,22.40
2022-11-18T04:59:37.301Z,25.00
2022-11-18T05:02:19.415Z,22.50
2022-11-18T05:05:02.774Z,22.00
2022-11-18T05:07:41.034Z,21.60
2022-11-18T05:10:16.056Z,22.20
2022-11-18T05:13:16.715Z,23.30
2022-11-18T05:15:49.572Z,21.20
2022-11-18T05:18:27.902Z,21.10
2022-11-18T05:21:24.108Z,23.50
2022-11-18T05:24:07.265Z,23.70
2022-11-18T05:27:00.425Z,25.50
2022-11-18T05:29:35.149Z,21.70
2022-11-18T05:32:09.364Z,22.70
2022-11-18T05:35:08.720Z,31.10
2022-11-18T05:37:51.809Z,24.60
2022-11-18T05:40:28.771Z,26.10
2022-11-18T05:43:14.428Z,26.60
2022-11-18T05:45:52.271Z,28.10
2022-11-18T05:48:24.203Z,27.00
2022-11-18T05:51:13.740Z,27.50
2022-11-18T05:54:03.625Z,29.50
2022-11-18T05:57:00.665Z,28.80
2022-11-18T05:59:38.264Z,27.30
2022-11-18T06:03:04.795Z,29.50
2022-11-18T06:09:11.469Z,26.70
2022-11-18T06:11:57.227Z,28.10
2022-11-18T06:14:45.865Z,29.20
2022-11-18T06:17:42.598Z,27.20
2022-11-18T06:20:32.092Z,26.40
2022-11-18T06:23:47.742Z,25.40
2022-11-18T06:26:33.519Z,25.60
2022-11-18T06:29:27.412Z,25.90
2022-11-18T06:32:04.415Z,30.30
2022-11-18T06:37:33.015Z,29.80
2022-11-18T06:43:13.263Z,31.60
2022-11-18T06:46:09.109Z,32.40
2022-11-18T06:48:52.102Z,27.80
2022-11-18T06:51:31.698Z,27.40
2022-11-18T06:53:59.640Z,29.00
2022-11-18T06:56:29.896Z,25.90
2022-11-18T06:58:59.014Z,26.90
2022-11-18T07:01:30.873Z,25.00
2022-11-18T07:03:59.560Z,28.20
2022-11-18T07:06:31.263Z,31.50
2022-11-18T07:09:07.334Z,32.50
2022-11-18T07:11:58.290Z,28.80
2022-11-18T07:14:28.212Z,27.50
2022-11-18T07:17:01.321Z,28.40
2022-11-18T07:19:35.587Z,29.70
2022-11-18T07:22:03.775Z,30.00
2022-11-18T07:24:31.593Z,31.70
2022-11-18T07:26:59.735Z,33.10
2022-11-18T07:29:27.497Z,33.70
2022-11-18T07:31:55.358Z,33.10
2022-11-18T07:34:23.072Z,36.70
2022-11-18T07:36:50.967Z,35.20
2022-11-18T07:39:23.239Z,33.20
2022-11-18T07:44:27.326Z,33.20
2022-11-18T07:46:55.254Z,34.80
2022-11-18T07:49:23.082Z,34.90
2022-11-18T07:51:51.275Z,38.80
2022-11-18T07:54:18.986Z,35.90
2022-11-18T07:56:46.727Z,37.00
2022-11-18T07:59:14.793Z,38.70
2022-11-18T08:01:42.726Z,39.60
2022-11-18T08:04:12.462Z,37.20
2022-11-18T08:06:40.847Z,34.50
2022-11-18T08:09:10.046Z,41.00
2022-11-18T08:11:37.770Z,36.50
2022-11-18T08:14:05.507Z,38.20
2022-11-18T08:16:33.272Z,35.10
2022-11-18T08:19:00.947Z,35.60
2022-11-18T08:21:28.692Z,36.40
2022-11-18T08:23:58.165Z,36.10
2022-11-18T08:26:27.261Z,38.70
2022-11-18T08:28:55.323Z,35.90
2022-11-18T08:31:28.601Z,33.40
2022-11-18T08:34:03.659Z,28.00
2022-11-18T08:36:35.914Z,23.90
2022-11-18T08:39:08.302Z,24.40
2022-11-18T08:41:42.976Z,24.10
2022-11-18T08:44:15.472Z,26.70
2022-11-18T08:49:14.850Z,22.90
2022-11-18T08:51:42.604Z,24.90
2022-11-18T08:54:10.326Z,24.20
2022-11-18T08:56:38.712Z,31.40
2022-11-18T08:59:08.000Z,22.30
2022-11-18T09:01:37.634Z,19.40
2022-11-18T09:04:05.405Z,22.80
2022-11-18T09:06:34.273Z,18.50
2022-11-18T09:09:06.161Z,21.90
2022-11-18T09:11:35.286Z,21.70
2022-11-18T09:15:06.390Z,16.80
2022-11-18T09:16:50.917Z,18.30
2022-11-18T09:22:07.912Z,13.80
2022-11-18T09:24:36.250Z,14.40
2022-11-18T09:27:06.216Z,9.80
2022-11-18T09:29:35.459Z,11.00
2022-11-18T09:32:03.247Z,10.10
2022-11-18T09:34:33.378Z,10.60
2022-11-18T09:37:05.795Z,17.90
2022-11-18T09:42:25.721Z,14.10
2022-11-18T09:45:23.697Z,11.70
2022-11-18T09:47:59.146Z,13.80
2022-11-18T09:50:49.648Z,11.30
2022-11-18T09:53:24.538Z,9.10
2022-11-18T09:55:54.071Z,15.80
2022-11-18T09:58:37.857Z,11.70
2022-11-18T10:01:17.392Z,19.10
2022-11-18T10:03:45.201Z,21.10
2022-11-18T10:06:31.652Z,8.90
2022-11-18T10:09:19.485Z,11.30
2022-11-18T10:12:09.449Z,9.80
2022-11-18T10:14:55.132Z,15.20
2022-11-18T10:17:56.698Z,8.30
2022-11-18T10:20:43.099Z,9.00
2022-11-18T10:23:33.866Z,12.60
2022-11-18T10:26:06.087Z,9.20
2022-11-18T10:28:34.706Z,7.80
2022-11-18T10:31:10.395Z,9.60
2022-11-18T10:33:39.086Z,7.60
2022-11-18T10:36:15.960Z,6.40
2022-11-18T10:38:50.266Z,5.60
2022-11-18T10:41:20.492Z,6.00
2022-11-18T10:43:53.572Z,6.10
2022-11-18T10:46:27.427Z,7.80
2022-11-18T10:49:10.400Z,9.20
2022-11-18T10:52:04.754Z,11.30
2022-11-18T10:54:32.988Z,8.80
2022-11-18T10:57:12.293Z,5.40
2022-11-18T10:59:50.551Z,6.60
2022-11-18T11:02:39.534Z,6.80
2022-11-18T11:05:22.690Z,7.40
2022-11-18T11:08:34.537Z,6.30
2022-11-18T11:13:32.763Z,7.70
2022-11-18T11:16:04.919Z,6.60
2022-11-18T11:21:24.858Z,7.50
2022-11-18T11:23:53.083Z,6.60
2022-11-18T11:30:11.291Z,9.60
2022-11-18T11:32:39.188Z,11.30
2022-11-18T11:35:23.029Z,8.80
2022-11-18T11:38:16.882Z,8.20
2022-11-18T11:41:00.245Z,12.00
2022-11-18T11:43:56.737Z,8.20
2022-11-18T11:47:10.453Z,7.40
2022-11-18T11:50:13.984Z,9.80
2022-11-18T11:52:56.604Z,9.60
2022-11-18T11:55:39.744Z,6.40
2022-11-18T11:58:32.204Z,8.00
2022-11-18T12:01:38.898Z,6.90
2022-11-18T12:04:51.079Z,8.30
2022-11-18T12:07:32.295Z,6.10
2022-11-18T12:10:57.010Z,8.60
2022-11-18T12:13:57.207Z,7.70
2022-11-18T12:16:53.742Z,7.00
2022-11-18T12:19:22.952Z,7.40
2022-11-18T12:22:01.514Z,9.60
2022-11-18T12:24:39.162Z,9.40
2022-11-18T12:27:37.194Z,9.90
2022-11-18T12:30:18.623Z,11.70
2022-11-18T12:32:46.978Z,8.40
2022-11-18T12:35:17.372Z,10.50
2022-11-18T12:37:51.805Z,9.50
2022-11-18T12:40:51.874Z,11.50
2022-11-18T12:43:45.032Z,20.60
2022-11-18T12:46:34.364Z,16.60
2022-11-18T12:49:21.313Z,20.60
2022-11-18T12:52:00.653Z,17.90
2022-11-18T12:54:48.345Z,18.30
2022-11-18T12:57:29.782Z,15.50
2022-11-18T13:04:12.068Z,15.00
2022-11-18T13:07:32.686Z,10.20
2022-11-18T13:10:11.240Z,14.10
2022-11-18T13:12:43.741Z,16.00
2022-11-18T13:15:30.481Z,18.70
2022-11-18T13:18:27.848Z,12.00
2022-11-18T13:21:18.843Z,11.10
2022-11-18T13:23:57.617Z,17.00
2022-11-18T13:26:33.155Z,11.40
2022-11-18T13:29:35.933Z,15.10
2022-11-18T13:32:16.415Z,15.20
2022-11-18T13:35:07.274Z,15.00
2022-11-18T13:37:51.954Z,17.40
2022-11-18T13:40:29.530Z,16.40
2022-11-18T13:43:00.142Z,14.70
2022-11-18T13:45:35.514Z,19.90
2022-11-18T13:48:14.258Z,17.10
2022-11-18T13:50:54.766Z,26.50
2022-11-18T13:53:31.267Z,19.20
2022-11-18T13:59:59.445Z,14.70
2022-11-18T14:02:55.728Z,14.30
2022-11-18T14:05:39.886Z,22.80
2022-11-18T14:08:32.979Z,21.00
2022-11-18T14:11:10.016Z,24.30
2022-11-18T14:13:54.240Z,20.60
2022-11-18T14:16:22.177Z,15.60
2022-11-18T14:18:51.674Z,15.10
2022-11-18T14:21:35.010Z,17.90
2022-11-18T14:24:03.596Z,18.00
2022-11-18T14:26:39.244Z,21.20
2022-11-18T14:29:22.460Z,20.30
2022-11-18T14:32:14.530Z,21.90
2022-11-18T14:34:47.110Z,23.70
2022-11-18T14:37:18.227Z,17.20
2022-11-18T14:40:00.940Z,20.80
2022-11-18T14:42:41.618Z,20.10
2022-11-18T14:45:15.979Z,16.40
2022-11-18T14:48:12.594Z,17.70
2022-11-18T14:50:58.882Z,17.20
2022-11-18T14:53:37.558Z,15.90
2022-11-18T14:56:22.436Z,20.80
2022-11-18T14:58:50.359Z,22.90
2022-11-18T15:01:30.584Z,20.60
2022-11-18T15:04:01.846Z,22.90
2022-11-18T15:06:32.868Z,21.20
2022-11-18T15:09:01.173Z,19.90
2022-11-18T15:11:29.253Z,15.50
2022-11-18T15:14:00.508Z,12.70
2022-11-18T15:16:30.812Z,17.30
2022-11-18T15:19:03.279Z,18.50
2022-11-18T15:21:35.239Z,23.80
2022-11-18T15:24:03.944Z,18.30
2022-11-18T15:26:54.007Z,19.50
2022-11-18T15:29:49.947Z,17.70
2022-11-18T15:32:17.972Z,17.60
2022-11-18T15:34:47.840Z,17.10
2022-11-18T15:37:15.699Z,17.40
2022-11-18T15:39:43.610Z,18.70
2022-11-18T15:42:16.954Z,21.10
2022-11-18T15:44:48.297Z,22.30
2022-11-18T15:47:18.169Z,17.70
2022-11-18T15:49:53.269Z,17.60
2022-11-18T15:52:21.108Z,18.30
2022-11-18T15:54:48.998Z,17.60
2022-11-18T15:57:16.757Z,18.90
2022-11-18T15:59:44.659Z,22.00
2022-11-18T16:02:12.756Z,22.00
2022-11-18T16:04:49.441Z,25.10
2022-11-18T16:07:19.790Z,24.30
2022-11-18T16:10:06.036Z,27.50
2022-11-18T16:12:48.940Z,25.10
2022-11-18T16:15:35.593Z,26.10
2022-11-18T16:18:05.261Z,30.60
2022-11-18T16:20:33.041Z,26.70
2022-11-18T16:23:00.891Z,30.80
2022-11-18T16:25:30.936Z,26.00
2022-11-18T16:31:08.765Z,27.20
2022-11-18T16:33:36.538Z,25.20
2022-11-18T16:36:04.594Z,31.50
2022-11-18T16:38:32.472Z,29.60
2022-11-18T16:40:28.281Z,22.10
2022-11-18T16:41:00.354Z,30.60
2022-11-18T16:43:28.257Z,24.80
2022-11-18T16:45:56.099Z,33.80
2022-11-18T16:48:24.009Z,27.70
2022-11-18T16:51:26.394Z,34.50
2022-11-18T16:54:05.147Z,30.60
2022-11-18T16:56:35.134Z,20.20
2022-11-18T16:59:05.768Z,22.00
2022-11-18T17:01:33.927Z,21.30
2022-11-18T17:04:01.849Z,23.60
2022-11-18T17:06:31.649Z,21.20
2022-11-18T17:08:59.991Z,21.60
2022-11-18T17:11:28.173Z,25.10
2022-11-18T17:13:58.325Z,28.20
2022-11-18T17:16:26.653Z,28.10
2022-11-18T17:18:57.216Z,24.50
2022-11-18T17:21:27.522Z,27.30
2022-11-18T17:23:56.094Z,16.50
2022-11-18T17:26:27.045Z,14.90
2022-11-18T17:28:55.938Z,22.40
2022-11-18T17:31:24.833Z,20.20
2022-11-18T17:33:54.822Z,16.20
2022-11-18T17:36:25.770Z,16.60
2022-11-18T17:38:58.660Z,18.60
2022-11-18T17:41:46.775Z,20.20
2022-11-18T17:44:17.780Z,22.10
2022-11-18T17:46:46.633Z,23.70
2022-11-18T17:49:17.461Z,24.50
2022-11-18T17:51:45.547Z,25.50
2022-11-18T17:54:13.887Z,22.30
2022-11-18T17:56:43.304Z,18.80
2022-11-18T17:59:11.304Z,19.80
2022-11-18T18:01:39.208Z,18.60
2022-11-18T18:04:07.255Z,20.00
2022-11-18T18:06:35.309Z,21.80
2022-11-18T18:09:05.248Z,20.50
2022-11-18T18:11:33.112Z,21.50
2022-11-18T18:14:12.964Z,25.00
2022-11-18T18:16:49.474Z,25.90
2022-11-18T18:19:22.472Z,27.90
2022-11-18T18:21:53.780Z,33.10
2022-11-18T18:24:22.382Z,29.70
2022-11-18T18:26:53.858Z,34.20
2022-11-18T18:29:21.925Z,42.00
2022-11-18T18:31:49.922Z,30.80
2022-11-18T18:34:19.926Z,37.00
2022-11-18T18:36:50.547Z,28.10
2022-11-18T18:39:18.603Z,21.50
2022-11-18T18:41:47.334Z,19.60
2022-11-18T18:44:18.761Z,27.90
2022-11-18T18:46:46.746Z,26.80
2022-11-18T18:49:19.725Z,29.50
2022-11-18T18:51:49.007Z,23.90
2022-11-18T18:54:20.249Z,27.80
2022-11-18T18:56:48.424Z,22.30
2022-11-18T18:59:16.327Z,25.00
2022-11-18T19:01:44.344Z,27.20
2022-11-18T19:04:13.525Z,27.40
2022-11-18T19:06:53.621Z,27.40
2022-11-18T19:09:26.270Z,23.90
2022-11-18T19:12:13.442Z,27.50
2022-11-18T19:14:41.591Z,25.40
2022-11-18T19:17:11.809Z,26.60
2022-11-18T19:20:01.324Z,31.50
2022-11-18T19:22:33.220Z,33.80
2022-11-18T19:25:01.529Z,30.60
2022-11-18T19:27:29.914Z,30.00
2022-11-18T19:29:57.849Z,32.00
2022-11-18T19:32:26.036Z,28.40
2022-11-18T19:34:53.876Z,37.00
2022-11-18T19:37:21.669Z,37.20
2022-11-18T19:39:49.443Z,32.40
2022-11-18T19:42:17.353Z,34.10
2022-11-18T19:44:45.122Z,33.30
2022-11-18T19:47:12.807Z,27.60
2022-11-18T19:49:40.589Z,29.90
2022-11-18T19:52:10.209Z,29.90
2022-11-18T19:54:40.320Z,26.00
2022-11-18T19:57:09.237Z,27.80
2022-11-18T19:59:37.178Z,24.30
2022-11-18T20:02:05.604Z,24.00
2022-11-18T20:04:33.289Z,27.20
2022-11-18T20:07:01.109Z,24.50
2022-11-18T20:09:29.226Z,26.80
2022-11-18T20:11:56.979Z,21.60
2022-11-18T20:14:24.947Z,21.20
2022-11-18T20:16:52.813Z,22.10
2022-11-18T20:19:20.974Z,24.40
2022-11-18T20:21:49.482Z,23.00
2022-11-18T20:24:18.469Z,23.70
2022-11-18T20:26:46.388Z,22.40
2022-11-18T20:29:17.547Z,20.70
2022-11-18T20:31:45.782Z,20.30
2022-11-18T20:34:13.933Z,20.60
2022-11-18T20:36:43.883Z,20.30
2022-11-18T20:39:14.984Z,19.00
2022-11-18T20:42:05.890Z,22.90
2022-11-18T20:44:33.931Z,38.70
2022-11-18T20:47:02.083Z,31.90
2022-11-18T20:49:30.858Z,32.40
2022-11-18T20:51:58.885Z,22.50
2022-11-18T20:54:26.759Z,25.40
2022-11-18T20:56:54.685Z,20.70
2022-11-18T20:59:23.354Z,21.50
2022-11-18T21:01:54.463Z,18.60
2022-11-18T21:04:23.201Z,16.60
2022-11-18T21:06:58.351Z,21.80
2022-11-18T21:09:33.982Z,25.80
2022-11-18T21:12:05.912Z,19.70
2022-11-18T21:14:34.227Z,18.30
2022-11-18T21:17:06.586Z,18.80
2022-11-18T21:19:37.005Z,16.80
2022-11-18T21:22:04.986Z,40.00
2022-11-18T21:24:34.371Z,36.50
2022-11-18T21:27:03.948Z,17.00
2022-11-18T21:29:34.596Z,19.00
2022-11-18T21:32:15.993Z,16.00
2022-11-18T21:34:51.301Z,20.50
2022-11-18T21:37:19.044Z,17.80
2022-11-18T21:39:47.671Z,15.50
2022-11-18T21:42:16.062Z,18.50
2022-11-18T21:44:44.071Z,18.80
2022-11-18T21:47:14.535Z,16.40
2022-11-18T21:49:46.686Z,15.50
2022-11-18T21:52:14.391Z,16.30
2022-11-18T21:54:47.357Z,15.90
2022-11-18T21:57:18.046Z,13.80
2022-11-18T21:59:45.831Z,17.60
2022-11-18T22:02:14.394Z,15.10
2022-11-18T22:04:54.369Z,16.90
2022-11-18T22:07:26.600Z,19.70
2022-11-18T22:09:54.790Z,18.30
2022-11-18T22:12:24.296Z,19.50
2022-11-18T22:14:52.001Z,20.90
2022-11-18T22:17:19.630Z,18.20
2022-11-18T22:19:47.433Z,17.70
2022-11-18T22:22:15.417Z,20.40
2022-11-18T22:24:47.228Z,17.20
2022-11-18T22:27:14.975Z,16.10
2022-11-18T22:29:42.690Z,17.10
2022-11-18T22:32:10.606Z,19.80
2022-11-18T22:34:38.336Z,15.60
2022-11-18T22:37:05.919Z,17.70
2022-11-18T22:39:33.614Z,16.70
2022-11-18T22:42:19.705Z,19.10
2022-11-18T22:44:47.441Z,17.00
2022-11-18T22:47:15.109Z,16.70
2022-11-18T22:49:42.974Z,17.70
2022-11-18T22:52:10.622Z,16.90
2022-11-18T22:54:39.626Z,17.60
2022-11-18T22:57:08.118Z,18.60
2022-11-18T22:59:35.868Z,18.90
2022-11-18T23:02:03.746Z,14.30
2022-11-18T23:04:31.606Z,16.30
2022-11-18T23:06:59.268Z,17.40
2022-11-18T23:09:27.236Z,19.40
2022-11-18T23:12:13.243Z,18.20
2022-11-18T23:14:40.892Z,14.30
2022-11-18T23:17:08.591Z,17.30
2022-11-18T23:19:41.327Z,17.70
2022-11-18T23:22:11.178Z,15.40
2022-11-18T23:24:39.347Z,17.00
2022-11-18T23:27:07.306Z,16.10
2022-11-18T23:29:34.973Z,17.00
2022-11-18T23:32:03.019Z,17.50
2022-11-18T23:34:30.637Z,18.00
2022-11-18T23:36:58.261Z,17.40
2022-11-18T23:39:26.911Z,19.90
2022-11-18T23:41:54.610Z,20.40
2022-11-18T23:44:42.313Z,15.70
2022-11-18T23:47:10.106Z,13.80
2022-11-18T23:49:37.794Z,15.80
2022-11-18T23:52:05.500Z,14.20
2022-11-18T23:54:33.129Z,14.70
2022-11-18T23:57:00.846Z,18.10
2022-11-18T23:59:28.698Z,19.40
